createdAt,value
2023-05-25T00:00:00.269Z,15.88
2023-05-25T00:02:29.688Z,13.13
2023-05-25T00:04:58.429Z,15.82
2023-05-25T00:07:26.206Z,17.30
2023-05-25T00:09:53.962Z,15.85
2023-05-25T00:12:22.034Z,18.80
2023-05-25T00:14:49.919Z,12.43
2023-05-25T00:17:18.898Z,21.85
2023-05-25T00:19:48.259Z,16.55
2023-05-25T00:22:16.054Z,14.45
2023-05-25T00:24:43.809Z,14.85
2023-05-25T00:27:11.647Z,15.00
2023-05-25T00:29:39.462Z,10.23
2023-05-25T00:32:07.965Z,12.32
2023-05-25T00:34:36.298Z,16.77
2023-05-25T00:37:05.981Z,11.02
2023-05-25T00:39:33.975Z,12.80
2023-05-25T00:42:03.708Z,12.00
2023-05-25T00:44:32.153Z,10.50
2023-05-25T00:47:01.493Z,18.35
2023-05-25T00:49:31.048Z,14.18
2023-05-25T00:51:59.049Z,12.45
2023-05-25T00:57:52.992Z,17.25
2023-05-25T01:00:21.460Z,12.88
2023-05-25T01:02:52.872Z,13.65
2023-05-25T01:05:23.042Z,14.25
2023-05-25T01:07:54.150Z,15.93
2023-05-25T01:10:23.862Z,13.52
2023-05-25T01:12:54.493Z,19.38
2023-05-25T01:15:22.469Z,14.20
2023-05-25T01:17:54.192Z,14.63
2023-05-25T01:20:22.112Z,13.77
2023-05-25T01:22:58.420Z,16.27
2023-05-25T01:25:32.668Z,12.15
2023-05-25T01:28:05.215Z,16.15
2023-05-25T01:30:34.082Z,24.92
2023-05-25T01:33:02.975Z,19.98
2023-05-25T01:35:31.079Z,18.05
2023-05-25T01:38:00.509Z,13.80
2023-05-25T01:40:28.494Z,15.98
2023-05-25T01:42:56.354Z,18.90
2023-05-25T01:45:24.665Z,16.63
2023-05-25T01:48:01.004Z,11.13
2023-05-25T01:50:35.181Z,16.48
2023-05-25T01:53:07.378Z,13.38
2023-05-25T01:55:40.434Z,12.60
2023-05-25T01:58:10.448Z,14.73
2023-05-25T02:00:40.416Z,14.90
2023-05-25T02:03:10.145Z,13.45
2023-05-25T02:05:38.931Z,21.17
2023-05-25T02:08:08.076Z,16.20
2023-05-25T02:10:35.873Z,14.43
2023-05-25T02:13:03.723Z,22.42
2023-05-25T02:15:33.150Z,17.70
2023-05-25T02:18:01.544Z,18.70
2023-05-25T02:20:29.727Z,17.00
2023-05-25T02:22:57.511Z,12.63
2023-05-25T02:25:26.679Z,17.38
2023-05-25T02:27:54.894Z,10.85
2023-05-25T02:30:22.784Z,13.63
2023-05-25T02:32:50.892Z,12.05
2023-05-25T02:35:18.818Z,13.93
2023-05-25T02:37:48.461Z,16.05
2023-05-25T02:40:18.884Z,13.13
2023-05-25T02:42:48.014Z,9.15
2023-05-25T02:45:15.842Z,15.75
2023-05-25T02:47:43.758Z,19.52
2023-05-25T02:50:12.142Z,10.38
2023-05-25T02:52:39.952Z,17.65
2023-05-25T02:55:10.340Z,20.33
2023-05-25T02:57:38.949Z,17.85
2023-05-25T03:00:11.188Z,15.27
2023-05-25T03:02:38.952Z,13.85
2023-05-25T03:05:07.572Z,12.10
2023-05-25T03:07:35.748Z,18.98
2023-05-25T03:10:03.610Z,16.10
2023-05-25T03:12:31.368Z,13.75
2023-05-25T03:14:59.169Z,14.20
2023-05-25T03:17:28.356Z,8.52
2023-05-25T03:19:56.216Z,12.40
2023-05-25T03:22:24.117Z,11.13
2023-05-25T03:24:51.881Z,13.50
2023-05-25T03:27:19.703Z,13.38
2023-05-25T03:29:50.096Z,14.43
2023-05-25T03:32:18.130Z,7.05
2023-05-25T03:34:47.265Z,11.98
2023-05-25T03:37:15.067Z,9.90
2023-05-25T03:39:42.984Z,10.77
2023-05-25T03:42:10.907Z,7.93
2023-05-25T03:44:40.497Z,10.57
2023-05-25T03:47:09.093Z,9.45
2023-05-25T03:49:36.985Z,12.50
2023-05-25T03:52:07.222Z,9.43
2023-05-25T03:54:35.167Z,17.33
2023-05-25T03:57:03.784Z,14.32
2023-05-25T03:59:32.283Z,7.43
2023-05-25T04:02:00.158Z,7.22
2023-05-25T04:04:30.051Z,10.07
2023-05-25T04:06:57.926Z,7.78
2023-05-25T04:09:27.169Z,8.77
2023-05-25T04:11:54.982Z,11.25
2023-05-25T04:14:22.849Z,8.48
2023-05-25T04:16:50.987Z,14.85
2023-05-25T04:19:19.410Z,12.40
2023-05-25T04:21:47.169Z,16.80
2023-05-25T04:24:15.004Z,11.88
2023-05-25T04:26:46.199Z,12.43
2023-05-25T04:29:14.270Z,12.65
2023-05-25T04:31:43.492Z,11.52
2023-05-25T04:34:11.302Z,14.23
2023-05-25T04:36:43.082Z,19.38
2023-05-25T04:39:10.957Z,9.98
2023-05-25T04:41:39.316Z,10.60
2023-05-25T04:44:10.379Z,9.23
2023-05-25T04:46:39.161Z,14.73
2023-05-25T04:49:08.582Z,11.43
2023-05-25T04:51:37.230Z,14.77
2023-05-25T04:54:05.570Z,14.70
2023-05-25T04:56:33.479Z,38.95
2023-05-25T04:59:01.450Z,15.85
2023-05-25T05:01:34.321Z,13.20
2023-05-25T05:04:02.258Z,9.63
2023-05-25T05:06:30.088Z,19.10
2023-05-25T05:08:57.868Z,11.32
2023-05-25T05:11:25.747Z,16.33
2023-05-25T05:13:53.497Z,17.08
2023-05-25T05:16:21.436Z,13.25
2023-05-25T05:18:50.636Z,18.73
2023-05-25T05:21:18.853Z,14.70
2023-05-25T05:23:47.700Z,16.00
2023-05-25T05:26:15.584Z,12.35
2023-05-25T05:28:43.549Z,14.10
2023-05-25T05:31:12.198Z,15.93
2023-05-25T05:33:40.529Z,19.92
2023-05-25T05:36:10.137Z,14.80
2023-05-25T05:38:39.962Z,18.67
2023-05-25T05:41:13.421Z,17.17
2023-05-25T05:43:42.438Z,13.93
2023-05-25T05:46:10.766Z,12.82
2023-05-25T05:48:39.115Z,11.68
2023-05-25T05:51:07.321Z,19.40
2023-05-25T05:53:36.537Z,13.18
2023-05-25T05:56:04.504Z,15.98
2023-05-25T05:58:32.511Z,14.65
2023-05-25T06:01:01.485Z,11.73
2023-05-25T06:03:29.732Z,17.65
2023-05-25T06:05:57.714Z,16.50
2023-05-25T06:08:26.112Z,10.60
2023-05-25T06:10:56.064Z,19.42
2023-05-25T06:13:23.889Z,24.80
2023-05-25T06:15:51.656Z,14.73
2023-05-25T06:18:19.406Z,14.80
2023-05-25T06:20:47.286Z,14.68
2023-05-25T06:23:15.185Z,14.00
2023-05-25T06:25:43.140Z,12.88
2023-05-25T06:28:12.421Z,15.85
2023-05-25T06:30:40.258Z,15.13
2023-05-25T06:33:08.669Z,13.30
2023-05-25T06:35:36.535Z,12.57
2023-05-25T06:38:04.342Z,13.88
2023-05-25T06:40:32.338Z,14.55
2023-05-25T06:43:00.167Z,16.38
2023-05-25T06:45:29.367Z,14.90
2023-05-25T06:47:57.481Z,12.48
2023-05-25T06:50:25.343Z,11.23
2023-05-25T06:52:53.210Z,14.00
2023-05-25T06:55:21.019Z,12.35
2023-05-25T06:57:48.788Z,15.75
2023-05-25T07:00:39.504Z,15.68
2023-05-25T07:03:07.276Z,14.80
2023-05-25T07:05:35.098Z,11.27
2023-05-25T07:08:02.870Z,12.23
2023-05-25T07:10:30.718Z,11.00
2023-05-25T07:12:58.535Z,12.82
2023-05-25T07:15:26.471Z,10.32
2023-05-25T07:17:57.219Z,13.63
2023-05-25T07:20:25.296Z,10.77
2023-05-25T07:22:53.769Z,15.15
2023-05-25T07:25:21.587Z,12.15
2023-05-25T07:27:50.277Z,11.32
2023-05-25T07:30:18.213Z,9.30
2023-05-25T07:32:46.466Z,8.93
2023-05-25T07:35:15.824Z,13.55
2023-05-25T07:37:43.657Z,10.80
2023-05-25T07:40:12.169Z,9.32
2023-05-25T07:42:40.582Z,10.85
2023-05-25T07:45:09.180Z,8.40
2023-05-25T07:47:37.145Z,13.75
2023-05-25T07:50:09.921Z,8.48
2023-05-25T07:52:39.379Z,10.52
2023-05-25T07:55:08.215Z,15.50
2023-05-25T07:57:36.309Z,8.88
2023-05-25T08:00:06.388Z,12.48
2023-05-25T08:02:34.307Z,7.25
2023-05-25T08:05:06.033Z,7.03
2023-05-25T08:07:34.159Z,9.68
2023-05-25T08:10:07.092Z,9.23
2023-05-25T08:12:47.764Z,11.70
2023-05-25T08:15:16.571Z,10.45
2023-05-25T08:17:44.940Z,12.60
2023-05-25T08:20:13.626Z,8.65
2023-05-25T08:22:41.649Z,11.63
2023-05-25T08:25:11.280Z,11.85
2023-05-25T08:27:39.289Z,10.75
2023-05-25T08:30:08.369Z,6.10
2023-05-25T08:32:36.268Z,15.35
2023-05-25T08:35:04.689Z,11.57
2023-05-25T08:37:33.372Z,12.27
2023-05-25T08:40:02.718Z,11.65
2023-05-25T08:42:31.971Z,8.48
2023-05-25T08:44:59.956Z,8.52
2023-05-25T08:47:32.586Z,10.02
2023-05-25T08:50:04.098Z,10.35
2023-05-25T08:52:35.192Z,9.77
2023-05-25T08:55:06.381Z,9.80
2023-05-25T08:57:47.134Z,9.88
2023-05-25T09:00:16.811Z,9.75
2023-05-25T09:02:51.785Z,8.63
2023-05-25T09:05:20.242Z,8.60
2023-05-25T09:07:49.903Z,6.45
2023-05-25T09:10:21.876Z,11.57
2023-05-25T09:12:52.541Z,13.30
2023-05-25T09:15:20.483Z,7.50
2023-05-25T09:17:48.536Z,13.88
2023-05-25T09:20:17.357Z,8.80
2023-05-25T09:22:45.718Z,6.65
2023-05-25T09:25:18.395Z,5.72
2023-05-25T09:27:46.935Z,9.77
2023-05-25T09:30:17.132Z,7.35
2023-05-25T09:32:47.585Z,11.55
2023-05-25T09:35:16.363Z,12.73
2023-05-25T09:37:45.267Z,7.65
2023-05-25T09:40:14.810Z,9.40
2023-05-25T09:42:44.157Z,5.88
2023-05-25T09:45:11.984Z,11.40
2023-05-25T09:47:41.722Z,7.88
2023-05-25T09:50:10.867Z,8.73
2023-05-25T09:52:38.971Z,11.02
2023-05-25T09:55:10.542Z,9.55
2023-05-25T09:57:38.474Z,14.07
2023-05-25T10:00:08.793Z,6.07
2023-05-25T10:02:37.260Z,10.25
2023-05-25T10:05:07.516Z,12.27
2023-05-25T10:07:36.001Z,8.95
2023-05-25T10:10:08.433Z,11.35
2023-05-25T10:12:36.644Z,11.15
2023-05-25T10:15:05.340Z,7.90
2023-05-25T10:17:37.289Z,10.25
2023-05-25T10:20:09.936Z,8.73
2023-05-25T10:22:41.928Z,9.13
2023-05-25T10:25:14.969Z,11.23
2023-05-25T10:27:45.546Z,6.53
2023-05-25T10:30:16.073Z,10.88
2023-05-25T10:32:47.916Z,7.05
2023-05-25T10:35:18.754Z,6.82
2023-05-25T10:37:47.198Z,10.07
2023-05-25T10:40:15.597Z,8.15
2023-05-25T10:42:44.139Z,8.40
2023-05-25T10:45:12.560Z,8.93
2023-05-25T10:47:43.146Z,7.93
2023-05-25T10:50:23.083Z,10.50
2023-05-25T10:53:01.638Z,9.23
2023-05-25T10:55:32.436Z,10.88
2023-05-25T10:58:10.814Z,9.07
2023-05-25T11:00:39.615Z,11.38
2023-05-25T11:03:08.531Z,7.97
2023-05-25T11:05:41.202Z,10.18
2023-05-25T11:08:10.108Z,8.60
2023-05-25T11:10:59.774Z,8.90
2023-05-25T11:13:40.872Z,11.80
2023-05-25T11:16:20.650Z,11.82
2023-05-25T11:18:53.231Z,12.70
2023-05-25T11:21:43.709Z,10.80
2023-05-25T11:24:16.804Z,10.05
2023-05-25T11:26:58.234Z,12.38
2023-05-25T11:29:27.198Z,13.93
2023-05-25T11:31:56.602Z,15.73
2023-05-25T11:34:25.820Z,13.75
2023-05-25T11:37:01.678Z,11.55
2023-05-25T11:39:30.375Z,12.18
2023-05-25T11:42:03.904Z,11.35
2023-05-25T11:44:33.544Z,12.70
2023-05-25T11:47:06.054Z,12.75
2023-05-25T11:49:36.184Z,9.52
2023-05-25T11:52:07.936Z,14.32
2023-05-25T11:54:36.518Z,18.52
2023-05-25T11:57:04.858Z,10.60
2023-05-25T11:59:33.558Z,12.35
2023-05-25T12:02:03.391Z,9.07
2023-05-25T12:04:33.147Z,13.98
2023-05-25T12:07:04.599Z,12.50
2023-05-25T12:09:36.764Z,11.45
2023-05-25T12:12:05.680Z,12.80
2023-05-25T12:14:36.158Z,11.05
2023-05-25T12:17:04.384Z,14.90
2023-05-25T12:19:32.830Z,12.95
2023-05-25T12:22:00.759Z,13.68
2023-05-25T12:24:28.696Z,15.07
2023-05-25T12:26:59.201Z,18.55
2023-05-25T12:29:27.205Z,12.18
2023-05-25T12:32:02.702Z,12.65
2023-05-25T12:34:30.539Z,8.18
2023-05-25T12:36:58.458Z,12.73
2023-05-25T12:39:39.023Z,10.95
2023-05-25T12:42:15.286Z,7.15
2023-05-25T12:44:44.254Z,11.68
2023-05-25T12:47:14.532Z,11.50
2023-05-25T12:49:43.393Z,11.25
2023-05-25T12:52:12.864Z,7.90
2023-05-25T12:54:44.122Z,10.90
2023-05-25T12:57:14.667Z,11.05
2023-05-25T12:59:44.558Z,11.27
2023-05-25T13:02:13.774Z,10.50
2023-05-25T13:04:44.755Z,9.43
2023-05-25T13:07:12.730Z,7.35
2023-05-25T13:09:40.571Z,7.85
2023-05-25T13:12:12.608Z,10.43
2023-05-25T13:14:41.857Z,11.02
2023-05-25T13:17:09.648Z,10.80
2023-05-25T13:19:37.566Z,10.10
2023-05-25T13:22:05.627Z,12.25
2023-05-25T13:24:33.585Z,13.45
2023-05-25T13:27:01.463Z,13.00
2023-05-25T13:29:29.222Z,15.40
2023-05-25T13:31:58.474Z,8.95
2023-05-25T13:34:26.255Z,13.60
2023-05-25T13:36:54.044Z,14.75
2023-05-25T13:39:22.712Z,19.73
2023-05-25T13:41:50.477Z,18.08
2023-05-25T13:44:18.288Z,31.80
2023-05-25T13:46:46.772Z,16.88
2023-05-25T13:49:16.405Z,14.55
2023-05-25T13:51:44.251Z,15.93
2023-05-25T13:54:12.938Z,15.27
2023-05-25T13:56:42.410Z,14.25
2023-05-25T13:59:10.301Z,16.15
2023-05-25T14:01:38.168Z,14.45
2023-05-25T14:04:06.049Z,19.73
2023-05-25T14:06:35.898Z,22.15
2023-05-25T14:09:03.766Z,16.60
2023-05-25T14:11:31.583Z,21.20
2023-05-25T14:13:59.432Z,20.33
2023-05-25T14:16:27.411Z,20.27
2023-05-25T14:18:56.451Z,20.58
2023-05-25T14:21:24.210Z,19.88
2023-05-25T14:24:00.846Z,13.75
2023-05-25T14:26:28.790Z,18.60
2023-05-25T14:28:56.617Z,18.70
2023-05-25T14:31:24.403Z,18.02
2023-05-25T14:34:15.237Z,13.10
2023-05-25T14:36:47.042Z,14.70
2023-05-25T14:39:18.648Z,22.40
2023-05-25T14:41:46.429Z,26.67
2023-05-25T14:44:14.212Z,17.15
2023-05-25T14:46:42.075Z,17.02
2023-05-25T14:49:09.953Z,23.85
2023-05-25T14:51:38.112Z,19.75
2023-05-25T14:54:07.948Z,14.27
2023-05-25T14:56:37.236Z,17.30
2023-05-25T14:59:05.125Z,18.52
2023-05-25T15:01:32.976Z,19.00
2023-05-25T15:04:00.883Z,19.38
2023-05-25T15:06:28.787Z,15.70
2023-05-25T15:08:56.612Z,14.88
2023-05-25T15:11:24.453Z,19.58
2023-05-25T15:13:53.954Z,18.15
2023-05-25T15:16:21.827Z,18.13
2023-05-25T15:18:50.974Z,16.65
2023-05-25T15:21:19.052Z,23.35
2023-05-25T15:23:46.891Z,19.90
2023-05-25T15:26:14.787Z,24.45
2023-05-25T15:28:42.648Z,20.02
2023-05-25T15:31:11.888Z,24.48
2023-05-25T15:33:51.973Z,25.92
2023-05-25T15:36:24.376Z,19.98
2023-05-25T15:38:52.280Z,22.50
2023-05-25T15:41:20.076Z,22.27
2023-05-25T15:43:52.287Z,23.65
2023-05-25T15:46:21.660Z,25.17
2023-05-25T15:48:49.520Z,24.42
2023-05-25T15:51:17.320Z,15.52
2023-05-25T15:53:45.151Z,15.32
2023-05-25T15:56:12.935Z,15.10
2023-05-25T15:58:40.970Z,16.95
2023-05-25T16:01:09.439Z,21.23
2023-05-25T16:03:39.320Z,19.42
2023-05-25T16:06:07.993Z,18.60
2023-05-25T16:08:35.785Z,23.13
2023-05-25T16:11:03.608Z,26.17
2023-05-25T16:13:31.493Z,20.85
2023-05-25T16:15:59.338Z,18.50
2023-05-25T16:18:27.112Z,22.10
2023-05-25T16:20:57.878Z,22.50
2023-05-25T16:23:26.057Z,21.73
2023-05-25T16:25:53.806Z,18.40
2023-05-25T16:28:21.594Z,20.80
2023-05-25T16:30:49.353Z,20.77
2023-05-25T16:33:17.219Z,19.67
2023-05-25T16:35:47.151Z,24.77
2023-05-25T16:38:16.611Z,19.52
2023-05-25T16:40:44.406Z,24.38
2023-05-25T16:43:12.397Z,17.67
2023-05-25T16:45:40.318Z,20.33
2023-05-25T16:48:08.133Z,21.77
2023-05-25T16:50:35.964Z,29.08
2023-05-25T16:53:03.767Z,26.35
2023-05-25T16:55:33.691Z,30.38
2023-05-25T16:58:01.469Z,24.85
2023-05-25T17:00:29.247Z,29.63
2023-05-25T17:02:57.183Z,25.52
2023-05-25T17:05:25.128Z,31.90
2023-05-25T17:07:52.966Z,32.78
2023-05-25T17:10:20.766Z,30.42
2023-05-25T17:12:49.959Z,28.83
2023-05-25T17:15:17.810Z,30.30
2023-05-25T17:17:45.758Z,26.52
2023-05-25T17:20:13.553Z,27.38
2023-05-25T17:22:42.453Z,35.65
2023-05-25T17:25:10.627Z,37.22
2023-05-25T17:27:38.445Z,29.02
2023-05-25T17:30:09.254Z,28.77
2023-05-25T17:32:38.405Z,37.97
2023-05-25T17:35:06.861Z,30.08
2023-05-25T17:37:34.811Z,27.92
2023-05-25T17:40:02.635Z,32.30
2023-05-25T17:42:30.422Z,31.92
2023-05-25T17:44:58.177Z,30.38
2023-05-25T17:47:27.498Z,31.90
2023-05-25T17:49:56.002Z,27.63
2023-05-25T17:52:23.823Z,34.38
2023-05-25T17:54:51.657Z,30.33
2023-05-25T17:57:19.433Z,28.60
2023-05-25T17:59:47.234Z,35.95
2023-05-25T18:02:15.172Z,32.72
2023-05-25T18:04:44.540Z,38.05
2023-05-25T18:07:12.313Z,35.08
2023-05-25T18:09:40.113Z,32.20
2023-05-25T18:12:08.396Z,28.98
2023-05-25T18:14:37.783Z,42.15
2023-05-25T18:17:06.067Z,29.35
2023-05-25T18:19:33.917Z,35.50
2023-05-25T18:22:03.063Z,29.10
2023-05-25T18:24:30.869Z,33.85
2023-05-25T18:26:59.847Z,38.22
2023-05-25T18:29:27.640Z,32.25
2023-05-25T18:31:55.418Z,23.15
2023-05-25T18:34:23.210Z,31.70
2023-05-25T18:36:50.997Z,32.28
2023-05-25T18:39:20.321Z,44.05
2023-05-25T18:41:48.169Z,41.92
2023-05-25T18:44:15.988Z,25.15
2023-05-25T18:46:44.517Z,31.88
2023-05-25T18:49:12.469Z,36.00
2023-05-25T18:51:40.291Z,30.40
2023-05-25T18:54:08.257Z,26.70
2023-05-25T18:56:38.427Z,32.40
2023-05-25T18:59:06.274Z,30.60
2023-05-25T19:01:34.142Z,30.77
2023-05-25T19:04:02.065Z,24.92
2023-05-25T19:06:29.955Z,25.80
2023-05-25T19:08:57.788Z,39.00
2023-05-25T19:11:26.027Z,31.80
2023-05-25T19:13:55.174Z,34.10
2023-05-25T19:16:23.030Z,31.77
2023-05-25T19:18:50.797Z,24.98
2023-05-25T19:21:18.609Z,31.70
2023-05-25T19:23:46.422Z,30.80
2023-05-25T19:26:14.250Z,32.30
2023-05-25T19:28:42.093Z,34.78
2023-05-25T19:31:11.322Z,39.40
2023-05-25T19:33:39.164Z,25.20
2023-05-25T19:36:07.340Z,30.88
2023-05-25T19:38:41.103Z,40.97
2023-05-25T19:41:09.909Z,33.63
2023-05-25T19:43:38.311Z,35.45
2023-05-25T19:46:06.316Z,25.55
2023-05-25T19:48:35.564Z,32.75
2023-05-25T19:51:03.402Z,37.92
2023-05-25T19:53:57.787Z,29.45
2023-05-25T19:58:55.202Z,31.17
2023-05-25T20:01:23.161Z,35.97
2023-05-25T20:03:52.482Z,24.42
2023-05-25T20:06:20.518Z,33.42
2023-05-25T20:08:48.312Z,40.40
2023-05-25T20:11:16.166Z,33.10
2023-05-25T20:13:44.572Z,36.67
2023-05-25T20:16:13.031Z,34.35
2023-05-25T20:18:41.037Z,31.95
2023-05-25T20:21:18.678Z,36.03
2023-05-25T20:23:49.122Z,31.83
2023-05-25T20:26:20.053Z,26.88
2023-05-25T20:29:02.413Z,30.23
2023-05-25T20:31:30.345Z,29.65
2023-05-25T20:37:42.459Z,30.25
2023-05-25T20:40:46.694Z,29.27
2023-05-25T20:43:17.565Z,25.75
2023-05-25T20:45:45.617Z,35.30
2023-05-25T20:48:16.509Z,31.52
2023-05-25T20:50:44.476Z,26.50
2023-05-25T20:53:12.304Z,36.10
2023-05-25T20:55:41.623Z,29.02
2023-05-25T20:58:09.479Z,31.77
2023-05-25T21:00:38.684Z,37.45
2023-05-25T21:03:08.534Z,31.75
2023-05-25T21:05:38.122Z,29.33
2023-05-25T21:08:06.068Z,34.42
2023-05-25T21:10:43.277Z,28.58
2023-05-25T21:13:11.195Z,29.40
2023-05-25T21:15:41.623Z,24.40
2023-05-25T21:18:12.825Z,29.30
2023-05-25T21:20:40.742Z,38.03
2023-05-25T21:23:13.958Z,39.78
2023-05-25T21:25:45.959Z,35.53
2023-05-25T21:32:49.043Z,35.05
2023-05-25T21:35:18.070Z,24.95
2023-05-25T21:37:46.037Z,28.30
2023-05-25T21:40:17.169Z,31.25
2023-05-25T21:42:47.081Z,35.95
2023-05-25T21:45:15.971Z,40.42
2023-05-25T21:47:43.755Z,34.33
2023-05-25T21:50:12.749Z,34.35
2023-05-25T21:52:41.630Z,39.20
2023-05-25T21:55:10.211Z,31.75
2023-05-25T21:57:38.207Z,32.35
2023-05-25T22:00:10.762Z,31.35
2023-05-25T22:02:38.633Z,27.65
2023-05-25T22:05:07.114Z,27.17
2023-05-25T22:07:34.911Z,33.90
2023-05-25T22:10:02.714Z,30.13
2023-05-25T22:12:30.562Z,33.53
2023-05-25T22:14:58.438Z,37.33
2023-05-25T22:17:27.613Z,30.15
2023-05-25T22:20:06.405Z,34.42
2023-05-25T22:22:37.341Z,26.50
2023-05-25T22:25:05.851Z,37.30
2023-05-25T22:27:34.107Z,30.77
2023-05-25T22:30:06.517Z,29.15
2023-05-25T22:32:38.265Z,27.77
2023-05-25T22:35:07.140Z,36.92
2023-05-25T22:37:35.027Z,33.70
2023-05-25T22:40:02.997Z,27.45
2023-05-25T22:42:30.976Z,31.50
2023-05-25T22:44:58.714Z,30.75
2023-05-25T22:47:26.877Z,31.55
2023-05-25T22:49:56.174Z,36.35
2023-05-25T22:52:23.922Z,28.83
2023-05-25T22:54:51.688Z,31.30
2023-05-25T22:57:19.443Z,28.73
2023-05-25T22:59:47.226Z,34.85
2023-05-25T23:02:17.678Z,36.13
2023-05-25T23:04:45.739Z,23.52
2023-05-25T23:07:14.943Z,32.45
2023-05-25T23:09:55.909Z,24.80
2023-05-25T23:12:29.238Z,33.63
2023-05-25T23:15:02.099Z,35.88
2023-05-25T23:17:32.685Z,37.67
2023-05-25T23:20:01.952Z,31.67
2023-05-25T23:22:31.089Z,34.50
2023-05-25T23:24:58.844Z,33.28
2023-05-25T23:27:27.307Z,29.10
2023-05-25T23:29:55.125Z,42.58
2023-05-25T23:32:22.916Z,40.55
2023-05-25T23:34:50.758Z,30.70
2023-05-25T23:37:18.496Z,33.65
2023-05-25T23:39:47.602Z,37.05
2023-05-25T23:42:16.781Z,34.50
2023-05-25T23:44:44.595Z,37.40
2023-05-25T23:47:12.837Z,35.75
2023-05-25T23:49:43.469Z,36.65
2023-05-25T23:52:16.853Z,36.90
2023-05-25T23:54:44.882Z,30.98
2023-05-25T23:57:22.949Z,26.75
2023-05-25T23:59:50.795Z,25.70
